LGKR

Details ICAO LGKR (CFU)
Name IOANNIS KAPODISTRIAS INTL
Region Greece
Timezone Europe/Athens (UTC+3.0)
Plans Departing 1126
Arriving 1685
Stats Elevation 0 ft / 0 m (AMSL)
Location 39.602300° 19.912000°
Runways 1
Magnetic Variation 4.248° E
Sunrise 2019-06-16 03:13:35 UTC / 2019-06-16 06:13:35 Local
Sunset 2019-06-16 18:10:58 UTC / 2019-06-16 21:10:58 Local
Advertisement - Login to hide

Runways

ID Width Length Bearing (true/mag) Surface Threshold Overrun Markings Lighting
17 148 ft / 45 m 7,604 ft / 2,318 m 168.78° / 164.53° ASPHALT 1,342 ft / 409 m 0 ft / 0 m PREC-APP EDGE THRESHOLD ALSF-I
35 148 ft / 45 m 7,604 ft / 2,318 m 348.79° / 344.54° ASPHALT 0 ft / 0 m 0 ft / 0 m PREC-APP EDGE THRESHOLD SALS REIL-OMNI

Map

Weather


0- 5 10 15 20 25 30 35+ Temperature / °C

Clouds and Precipitation
Forecast for 2019-06-12 12:00 UTC. Updated 4 days ago

Ground ~20,000 ft ~40,000 ft Winds

METAR

LGKR 160920Z 18004KT CAVOK 30/23 Q1011 NOSIG

TAF

TAF LGKR 160500Z 1606/1706 VRB05KT 9999 FEW020

Frequencies

Tower 120.85 MHz KERKIRA TWR
Ground 121.70 MHz KERKIRA GND
Recorded 126.35 MHz ATIS
Approach 122.35 MHz KERKIRA APP
Clearance 120.85 MHz KERKIRA CLD
Approach 122.10 MHz KERKIRA APP
Warning: Do not use this data for real-world aviation or navigation. No guarantee of current accuracy is given.